sensor_id;sensor_type;location;lat;lon;timestamp;P1;durP1;ratioP1;P2;durP2;ratioP2
8556;SDS011;4316;53.840;10.762;2023-05-07T00:01:55;16.47;;;11.30;;
8556;SDS011;4316;53.840;10.762;2023-05-07T00:04:21;12.47;;;10.27;;
8556;SDS011;4316;53.840;10.762;2023-05-07T00:06:46;11.73;;;10.20;;
8556;SDS011;4316;53.840;10.762;2023-05-07T00:09:12;16.53;;;11.00;;
8556;SDS011;4316;53.840;10.762;2023-05-07T00:11:37;22.93;;;11.10;;
8556;SDS011;4316;53.840;10.762;2023-05-07T00:14:03;14.90;;;10.60;;
8556;SDS011;4316;53.840;10.762;2023-05-07T00:16:29;18.63;;;11.07;;
8556;SDS011;4316;53.840;10.762;2023-05-07T00:18:54;18.07;;;10.40;;
8556;SDS011;4316;53.840;10.762;2023-05-07T00:21:20;12.90;;;10.07;;
8556;SDS011;4316;53.840;10.762;2023-05-07T00:23:46;15.37;;;10.90;;
8556;SDS011;4316;53.840;10.762;2023-05-07T00:26:12;16.83;;;11.63;;
8556;SDS011;4316;53.840;10.762;2023-05-07T00:28:38;15.07;;;10.93;;
8556;SDS011;4316;53.840;10.762;2023-05-07T00:31:04;18.20;;;11.47;;
8556;SDS011;4316;53.840;10.762;2023-05-07T00:33:30;13.40;;;11.03;;
8556;SDS011;4316;53.840;10.762;2023-05-07T00:35:55;13.47;;;10.40;;
8556;SDS011;4316;53.840;10.762;2023-05-07T00:38:21;15.43;;;11.17;;
8556;SDS011;4316;53.840;10.762;2023-05-07T00:40:46;13.80;;;10.80;;
8556;SDS011;4316;53.840;10.762;2023-05-07T00:43:12;13.63;;;10.77;;
8556;SDS011;4316;53.840;10.762;2023-05-07T00:45:38;13.03;;;10.77;;
8556;SDS011;4316;53.840;10.762;2023-05-07T00:48:03;12.80;;;11.07;;
8556;SDS011;4316;53.840;10.762;2023-05-07T00:50:30;11.83;;;10.43;;
8556;SDS011;4316;53.840;10.762;2023-05-07T00:52:57;18.77;;;11.67;;
8556;SDS011;4316;53.840;10.762;2023-05-07T00:55:24;14.70;;;11.33;;
8556;SDS011;4316;53.840;10.762;2023-05-07T00:57:50;16.73;;;10.80;;
8556;SDS011;4316;53.840;10.762;2023-05-07T01:00:16;12.43;;;9.63;;
8556;SDS011;4316;53.840;10.762;2023-05-07T01:02:42;13.80;;;11.13;;
8556;SDS011;4316;53.840;10.762;2023-05-07T01:05:09;16.13;;;10.90;;
8556;SDS011;4316;53.840;10.762;2023-05-07T01:07:39;12.90;;;10.93;;
8556;SDS011;4316;53.840;10.762;2023-05-07T01:10:06;13.40;;;10.30;;
8556;SDS011;4316;53.840;10.762;2023-05-07T01:12:33;14.53;;;10.23;;
8556;SDS011;4316;53.840;10.762;2023-05-07T01:15:00;15.57;;;10.47;;
8556;SDS011;4316;53.840;10.762;2023-05-07T01:17:27;12.47;;;10.23;;
8556;SDS011;4316;53.840;10.762;2023-05-07T01:19:52;12.27;;;10.20;;
8556;SDS011;4316;53.840;10.762;2023-05-07T01:22:31;12.73;;;10.57;;
8556;SDS011;4316;53.840;10.762;2023-05-07T01:25:05;12.23;;;9.93;;
8556;SDS011;4316;53.840;10.762;2023-05-07T01:27:32;14.17;;;9.40;;
8556;SDS011;4316;53.840;10.762;2023-05-07T01:29:59;11.83;;;10.23;;
8556;SDS011;4316;53.840;10.762;2023-05-07T01:32:27;17.50;;;10.23;;
8556;SDS011;4316;53.840;10.762;2023-05-07T01:34:58;9.97;;;8.60;;
8556;SDS011;4316;53.840;10.762;2023-05-07T01:37:26;11.23;;;8.60;;
8556;SDS011;4316;53.840;10.762;2023-05-07T01:39:52;10.57;;;9.13;;
8556;SDS011;4316;53.840;10.762;2023-05-07T01:42:18;13.43;;;8.27;;
8556;SDS011;4316;53.840;10.762;2023-05-07T01:44:44;28.57;;;8.90;;
8556;SDS011;4316;53.840;10.762;2023-05-07T01:47:11;10.07;;;7.70;;
8556;SDS011;4316;53.840;10.762;2023-05-07T01:49:39;10.10;;;8.10;;
8556;SDS011;4316;53.840;10.762;2023-05-07T01:52:05;11.73;;;8.43;;
8556;SDS011;4316;53.840;10.762;2023-05-07T01:54:30;10.00;;;7.90;;
8556;SDS011;4316;53.840;10.762;2023-05-07T01:56:57;12.23;;;8.10;;
8556;SDS011;4316;53.840;10.762;2023-05-07T01:59:23;10.43;;;8.10;;
8556;SDS011;4316;53.840;10.762;2023-05-07T02:01:48;8.87;;;7.80;;
8556;SDS011;4316;53.840;10.762;2023-05-07T02:04:14;8.43;;;7.57;;
8556;SDS011;4316;53.840;10.762;2023-05-07T02:06:40;8.57;;;7.80;;
8556;SDS011;4316;53.840;10.762;2023-05-07T02:09:07;13.87;;;8.13;;
8556;SDS011;4316;53.840;10.762;2023-05-07T02:11:34;8.63;;;7.60;;
8556;SDS011;4316;53.840;10.762;2023-05-07T02:14:00;8.63;;;7.33;;
8556;SDS011;4316;53.840;10.762;2023-05-07T02:16:25;8.97;;;7.40;;
8556;SDS011;4316;53.840;10.762;2023-05-07T02:18:51;8.33;;;7.07;;
8556;SDS011;4316;53.840;10.762;2023-05-07T02:21:17;10.43;;;7.50;;
8556;SDS011;4316;53.840;10.762;2023-05-07T02:23:42;7.07;;;6.37;;
8556;SDS011;4316;53.840;10.762;2023-05-07T02:26:08;7.93;;;7.13;;
8556;SDS011;4316;53.840;10.762;2023-05-07T02:28:34;8.17;;;7.33;;
8556;SDS011;4316;53.840;10.762;2023-05-07T02:31:02;8.37;;;7.27;;
8556;SDS011;4316;53.840;10.762;2023-05-07T02:33:28;9.97;;;7.50;;
8556;SDS011;4316;53.840;10.762;2023-05-07T02:35:55;7.07;;;6.37;;
8556;SDS011;4316;53.840;10.762;2023-05-07T02:38:21;8.17;;;6.87;;
8556;SDS011;4316;53.840;10.762;2023-05-07T02:40:47;8.97;;;7.30;;
8556;SDS011;4316;53.840;10.762;2023-05-07T02:43:13;9.07;;;8.17;;
8556;SDS011;4316;53.840;10.762;2023-05-07T02:45:42;8.13;;;7.13;;
8556;SDS011;4316;53.840;10.762;2023-05-07T02:48:08;10.47;;;7.43;;
8556;SDS011;4316;53.840;10.762;2023-05-07T02:50:34;11.93;;;8.10;;
8556;SDS011;4316;53.840;10.762;2023-05-07T02:53:00;9.43;;;8.17;;
8556;SDS011;4316;53.840;10.762;2023-05-07T02:55:25;18.13;;;8.80;;
8556;SDS011;4316;53.840;10.762;2023-05-07T02:57:51;10.27;;;8.30;;
8556;SDS011;4316;53.840;10.762;2023-05-07T03:00:17;9.00;;;8.07;;
8556;SDS011;4316;53.840;10.762;2023-05-07T03:02:51;10.83;;;8.60;;
8556;SDS011;4316;53.840;10.762;2023-05-07T03:05:17;11.40;;;9.17;;
8556;SDS011;4316;53.840;10.762;2023-05-07T03:07:43;10.57;;;9.47;;
8556;SDS011;4316;53.840;10.762;2023-05-07T03:10:11;11.03;;;9.00;;
8556;SDS011;4316;53.840;10.762;2023-05-07T03:12:37;11.03;;;8.70;;
8556;SDS011;4316;53.840;10.762;2023-05-07T03:15:03;11.50;;;9.17;;
8556;SDS011;4316;53.840;10.762;2023-05-07T03:17:29;10.77;;;8.70;;
8556;SDS011;4316;53.840;10.762;2023-05-07T03:19:54;10.37;;;8.47;;
8556;SDS011;4316;53.840;10.762;2023-05-07T03:22:20;12.20;;;8.83;;
8556;SDS011;4316;53.840;10.762;2023-05-07T03:24:46;11.47;;;9.07;;
8556;SDS011;4316;53.840;10.762;2023-05-07T03:27:11;9.67;;;8.67;;
8556;SDS011;4316;53.840;10.762;2023-05-07T03:29:37;10.47;;;9.37;;
8556;SDS011;4316;53.840;10.762;2023-05-07T03:32:03;9.67;;;8.67;;
8556;SDS011;4316;53.840;10.762;2023-05-07T03:34:28;10.33;;;8.53;;
8556;SDS011;4316;53.840;10.762;2023-05-07T03:36:54;11.30;;;9.00;;
8556;SDS011;4316;53.840;10.762;2023-05-07T03:39:21;10.63;;;8.93;;
8556;SDS011;4316;53.840;10.762;2023-05-07T03:41:48;10.47;;;8.57;;
8556;SDS011;4316;53.840;10.762;2023-05-07T03:44:13;11.87;;;9.03;;
8556;SDS011;4316;53.840;10.762;2023-05-07T03:46:39;11.17;;;8.63;;
8556;SDS011;4316;53.840;10.762;2023-05-07T03:49:07;8.87;;;7.97;;
8556;SDS011;4316;53.840;10.762;2023-05-07T03:51:33;16.57;;;7.97;;
8556;SDS011;4316;53.840;10.762;2023-05-07T03:53:59;9.70;;;8.43;;
8556;SDS011;4316;53.840;10.762;2023-05-07T03:56:26;10.27;;;8.13;;
8556;SDS011;4316;53.840;10.762;2023-05-07T03:58:53;9.97;;;7.33;;
8556;SDS011;4316;53.840;10.762;2023-05-07T04:01:19;9.50;;;8.47;;
8556;SDS011;4316;53.840;10.762;2023-05-07T04:03:46;8.77;;;7.87;;
8556;SDS011;4316;53.840;10.762;2023-05-07T04:06:11;8.63;;;7.83;;
8556;SDS011;4316;53.840;10.762;2023-05-07T04:08:39;10.27;;;8.13;;
8556;SDS011;4316;53.840;10.762;2023-05-07T04:11:06;10.27;;;8.83;;
8556;SDS011;4316;53.840;10.762;2023-05-07T04:13:33;9.13;;;8.20;;
8556;SDS011;4316;53.840;10.762;2023-05-07T04:16:02;11.20;;;8.73;;
8556;SDS011;4316;53.840;10.762;2023-05-07T04:18:28;13.47;;;8.47;;
8556;SDS011;4316;53.840;10.762;2023-05-07T04:20:54;10.13;;;7.83;;
8556;SDS011;4316;53.840;10.762;2023-05-07T04:23:20;10.43;;;7.93;;
8556;SDS011;4316;53.840;10.762;2023-05-07T04:25:46;9.37;;;8.37;;
8556;SDS011;4316;53.840;10.762;2023-05-07T04:28:26;10.03;;;8.57;;
8556;SDS011;4316;53.840;10.762;2023-05-07T04:30:52;9.17;;;7.97;;
8556;SDS011;4316;53.840;10.762;2023-05-07T04:33:19;10.60;;;8.73;;
8556;SDS011;4316;53.840;10.762;2023-05-07T04:35:46;9.13;;;7.63;;
8556;SDS011;4316;53.840;10.762;2023-05-07T04:38:12;10.30;;;8.93;;
8556;SDS011;4316;53.840;10.762;2023-05-07T04:40:37;10.37;;;7.90;;
8556;SDS011;4316;53.840;10.762;2023-05-07T04:43:04;10.93;;;8.70;;
8556;SDS011;4316;53.840;10.762;2023-05-07T04:45:34;9.03;;;7.83;;
8556;SDS011;4316;53.840;10.762;2023-05-07T04:48:01;11.60;;;7.57;;
8556;SDS011;4316;53.840;10.762;2023-05-07T04:50:28;11.77;;;8.00;;
8556;SDS011;4316;53.840;10.762;2023-05-07T04:52:57;9.70;;;7.47;;
8556;SDS011;4316;53.840;10.762;2023-05-07T04:55:23;10.67;;;7.70;;
8556;SDS011;4316;53.840;10.762;2023-05-07T04:57:49;9.07;;;7.87;;
8556;SDS011;4316;53.840;10.762;2023-05-07T05:00:15;11.50;;;8.73;;
8556;SDS011;4316;53.840;10.762;2023-05-07T05:02:43;11.67;;;7.47;;
8556;SDS011;4316;53.840;10.762;2023-05-07T05:05:11;11.07;;;7.50;;
8556;SDS011;4316;53.840;10.762;2023-05-07T05:07:37;7.23;;;6.47;;
8556;SDS011;4316;53.840;10.762;2023-05-07T05:10:06;7.03;;;6.33;;
8556;SDS011;4316;53.840;10.762;2023-05-07T05:12:35;8.97;;;6.30;;
8556;SDS011;4316;53.840;10.762;2023-05-07T05:15:00;7.20;;;6.50;;
8556;SDS011;4316;53.840;10.762;2023-05-07T05:17:26;8.43;;;6.00;;
8556;SDS011;4316;53.840;10.762;2023-05-07T05:19:52;8.67;;;6.07;;
8556;SDS011;4316;53.840;10.762;2023-05-07T05:22:18;8.33;;;6.00;;
8556;SDS011;4316;53.840;10.762;2023-05-07T05:24:44;8.90;;;6.60;;
8556;SDS011;4316;53.840;10.762;2023-05-07T05:27:10;8.93;;;6.83;;
8556;SDS011;4316;53.840;10.762;2023-05-07T05:29:35;6.77;;;6.00;;
8556;SDS011;4316;53.840;10.762;2023-05-07T05:32:01;8.87;;;6.17;;
8556;SDS011;4316;53.840;10.762;2023-05-07T05:34:28;9.90;;;6.60;;
8556;SDS011;4316;53.840;10.762;2023-05-07T05:36:54;7.57;;;6.40;;
8556;SDS011;4316;53.840;10.762;2023-05-07T05:39:20;6.43;;;5.83;;
8556;SDS011;4316;53.840;10.762;2023-05-07T05:41:48;6.60;;;5.83;;
8556;SDS011;4316;53.840;10.762;2023-05-07T05:44:13;8.30;;;6.10;;
8556;SDS011;4316;53.840;10.762;2023-05-07T05:46:40;6.97;;;6.27;;
8556;SDS011;4316;53.840;10.762;2023-05-07T05:49:06;5.83;;;5.33;;
8556;SDS011;4316;53.840;10.762;2023-05-07T05:51:32;5.30;;;4.90;;
8556;SDS011;4316;53.840;10.762;2023-05-07T05:53:57;6.63;;;5.20;;
8556;SDS011;4316;53.840;10.762;2023-05-07T05:56:23;11.03;;;4.70;;
8556;SDS011;4316;53.840;10.762;2023-05-07T05:58:48;4.73;;;4.23;;
8556;SDS011;4316;53.840;10.762;2023-05-07T06:01:14;8.37;;;5.23;;
8556;SDS011;4316;53.840;10.762;2023-05-07T06:03:40;6.57;;;4.60;;
8556;SDS011;4316;53.840;10.762;2023-05-07T06:06:11;6.80;;;4.57;;
8556;SDS011;4316;53.840;10.762;2023-05-07T06:08:37;4.97;;;4.50;;
8556;SDS011;4316;53.840;10.762;2023-05-07T06:11:03;5.43;;;4.93;;
8556;SDS011;4316;53.840;10.762;2023-05-07T06:13:31;5.37;;;4.80;;
8556;SDS011;4316;53.840;10.762;2023-05-07T06:15:56;6.70;;;5.33;;
8556;SDS011;4316;53.840;10.762;2023-05-07T06:18:22;5.10;;;4.70;;
8556;SDS011;4316;53.840;10.762;2023-05-07T06:20:48;6.27;;;5.40;;
8556;SDS011;4316;53.840;10.762;2023-05-07T06:23:22;6.10;;;5.50;;
8556;SDS011;4316;53.840;10.762;2023-05-07T06:25:48;6.63;;;5.40;;
8556;SDS011;4316;53.840;10.762;2023-05-07T06:28:21;6.33;;;5.50;;
8556;SDS011;4316;53.840;10.762;2023-05-07T06:30:47;8.83;;;5.33;;
8556;SDS011;4316;53.840;10.762;2023-05-07T06:33:16;7.07;;;5.70;;
8556;SDS011;4316;53.840;10.762;2023-05-07T06:35:42;5.73;;;5.23;;
8556;SDS011;4316;53.840;10.762;2023-05-07T06:38:07;6.97;;;5.70;;
8556;SDS011;4316;53.840;10.762;2023-05-07T06:40:33;8.63;;;6.30;;
8556;SDS011;4316;53.840;10.762;2023-05-07T06:42:59;5.30;;;4.80;;
8556;SDS011;4316;53.840;10.762;2023-05-07T06:45:46;6.70;;;4.73;;
8556;SDS011;4316;53.840;10.762;2023-05-07T06:48:12;5.30;;;4.50;;
8556;SDS011;4316;53.840;10.762;2023-05-07T06:50:48;7.50;;;4.97;;
8556;SDS011;4316;53.840;10.762;2023-05-07T06:53:14;6.53;;;4.47;;
8556;SDS011;4316;53.840;10.762;2023-05-07T06:55:40;4.27;;;3.90;;
8556;SDS011;4316;53.840;10.762;2023-05-07T06:58:08;5.93;;;3.83;;
8556;SDS011;4316;53.840;10.762;2023-05-07T07:00:33;4.60;;;3.30;;
8556;SDS011;4316;53.840;10.762;2023-05-07T07:03:00;7.37;;;3.73;;
8556;SDS011;4316;53.840;10.762;2023-05-07T07:05:27;4.40;;;4.00;;
8556;SDS011;4316;53.840;10.762;2023-05-07T07:07:53;3.73;;;3.30;;
8556;SDS011;4316;53.840;10.762;2023-05-07T07:10:19;3.90;;;3.50;;
8556;SDS011;4316;53.840;10.762;2023-05-07T07:12:45;3.93;;;3.63;;
8556;SDS011;4316;53.840;10.762;2023-05-07T07:15:11;4.50;;;3.60;;
8556;SDS011;4316;53.840;10.762;2023-05-07T07:17:38;5.17;;;4.13;;
8556;SDS011;4316;53.840;10.762;2023-05-07T07:20:05;6.37;;;4.50;;
8556;SDS011;4316;53.840;10.762;2023-05-07T07:22:31;5.67;;;4.00;;
8556;SDS011;4316;53.840;10.762;2023-05-07T07:24:57;6.23;;;4.30;;
8556;SDS011;4316;53.840;10.762;2023-05-07T07:27:23;4.87;;;4.40;;
8556;SDS011;4316;53.840;10.762;2023-05-07T07:29:49;5.13;;;4.63;;
8556;SDS011;4316;53.840;10.762;2023-05-07T07:32:14;5.00;;;4.50;;
8556;SDS011;4316;53.840;10.762;2023-05-07T07:34:40;7.20;;;4.53;;
8556;SDS011;4316;53.840;10.762;2023-05-07T07:37:07;5.03;;;4.37;;
8556;SDS011;4316;53.840;10.762;2023-05-07T07:39:35;4.80;;;4.40;;
8556;SDS011;4316;53.840;10.762;2023-05-07T07:42:03;5.10;;;4.57;;
8556;SDS011;4316;53.840;10.762;2023-05-07T07:44:29;6.80;;;4.60;;
8556;SDS011;4316;53.840;10.762;2023-05-07T07:46:59;6.67;;;5.07;;
8556;SDS011;4316;53.840;10.762;2023-05-07T07:49:26;4.87;;;4.47;;
8556;SDS011;4316;53.840;10.762;2023-05-07T07:51:52;6.23;;;4.90;;
8556;SDS011;4316;53.840;10.762;2023-05-07T07:54:18;5.23;;;3.87;;
8556;SDS011;4316;53.840;10.762;2023-05-07T07:56:44;7.87;;;4.30;;
8556;SDS011;4316;53.840;10.762;2023-05-07T07:59:11;6.03;;;4.40;;
8556;SDS011;4316;53.840;10.762;2023-05-07T08:01:39;4.47;;;3.97;;
8556;SDS011;4316;53.840;10.762;2023-05-07T08:04:05;4.40;;;3.90;;
8556;SDS011;4316;53.840;10.762;2023-05-07T08:06:34;4.87;;;4.43;;
8556;SDS011;4316;53.840;10.762;2023-05-07T08:09:00;4.10;;;3.70;;
8556;SDS011;4316;53.840;10.762;2023-05-07T08:11:26;4.40;;;4.00;;
8556;SDS011;4316;53.840;10.762;2023-05-07T08:13:53;5.07;;;4.47;;
8556;SDS011;4316;53.840;10.762;2023-05-07T08:16:20;4.10;;;3.80;;
8556;SDS011;4316;53.840;10.762;2023-05-07T08:18:46;5.77;;;5.10;;
8556;SDS011;4316;53.840;10.762;2023-05-07T08:21:11;5.60;;;5.10;;
8556;SDS011;4316;53.840;10.762;2023-05-07T08:23:38;5.50;;;4.30;;
8556;SDS011;4316;53.840;10.762;2023-05-07T08:26:04;4.90;;;4.20;;
8556;SDS011;4316;53.840;10.762;2023-05-07T08:28:30;4.80;;;4.40;;
8556;SDS011;4316;53.840;10.762;2023-05-07T08:30:56;4.30;;;3.93;;
8556;SDS011;4316;53.840;10.762;2023-05-07T08:33:22;3.97;;;3.67;;
8556;SDS011;4316;53.840;10.762;2023-05-07T08:35:47;5.63;;;5.10;;
8556;SDS011;4316;53.840;10.762;2023-05-07T08:38:14;5.10;;;3.67;;
8556;SDS011;4316;53.840;10.762;2023-05-07T08:40:41;6.90;;;3.93;;
8556;SDS011;4316;53.840;10.762;2023-05-07T08:43:12;4.47;;;3.67;;
8556;SDS011;4316;53.840;10.762;2023-05-07T08:45:39;3.80;;;3.50;;
8556;SDS011;4316;53.840;10.762;2023-05-07T08:48:14;3.87;;;3.57;;
8556;SDS011;4316;53.840;10.762;2023-05-07T08:50:45;5.33;;;4.00;;
8556;SDS011;4316;53.840;10.762;2023-05-07T08:53:11;4.17;;;3.83;;
8556;SDS011;4316;53.840;10.762;2023-05-07T08:55:37;3.67;;;3.37;;
8556;SDS011;4316;53.840;10.762;2023-05-07T08:58:04;5.67;;;3.70;;
8556;SDS011;4316;53.840;10.762;2023-05-07T09:00:31;3.63;;;3.30;;
8556;SDS011;4316;53.840;10.762;2023-05-07T09:03:00;3.37;;;3.10;;
8556;SDS011;4316;53.840;10.762;2023-05-07T09:05:26;3.50;;;3.30;;
8556;SDS011;4316;53.840;10.762;2023-05-07T09:07:52;3.90;;;3.20;;
8556;SDS011;4316;53.840;10.762;2023-05-07T09:10:19;8.87;;;3.00;;
8556;SDS011;4316;53.840;10.762;2023-05-07T09:12:46;3.80;;;2.80;;
8556;SDS011;4316;53.840;10.762;2023-05-07T09:15:13;3.60;;;3.30;;
8556;SDS011;4316;53.840;10.762;2023-05-07T09:17:39;9.83;;;2.50;;
8556;SDS011;4316;53.840;10.762;2023-05-07T09:20:07;4.70;;;3.00;;
8556;SDS011;4316;53.840;10.762;2023-05-07T09:22:33;3.13;;;2.80;;
8556;SDS011;4316;53.840;10.762;2023-05-07T09:25:05;2.97;;;2.70;;
8556;SDS011;4316;53.840;10.762;2023-05-07T09:27:32;3.10;;;2.70;;
8556;SDS011;4316;53.840;10.762;2023-05-07T09:29:58;5.57;;;2.93;;
8556;SDS011;4316;53.840;10.762;2023-05-07T09:32:24;3.57;;;3.20;;
8556;SDS011;4316;53.840;10.762;2023-05-07T09:34:50;3.47;;;2.87;;
8556;SDS011;4316;53.840;10.762;2023-05-07T09:37:19;3.93;;;2.70;;
8556;SDS011;4316;53.840;10.762;2023-05-07T09:39:46;2.80;;;2.60;;
8556;SDS011;4316;53.840;10.762;2023-05-07T09:42:15;2.70;;;2.50;;
8556;SDS011;4316;53.840;10.762;2023-05-07T09:44:43;2.43;;;2.30;;
8556;SDS011;4316;53.840;10.762;2023-05-07T09:47:13;2.40;;;2.30;;
8556;SDS011;4316;53.840;10.762;2023-05-07T09:49:45;3.23;;;2.50;;
8556;SDS011;4316;53.840;10.762;2023-05-07T09:52:13;2.73;;;2.57;;
8556;SDS011;4316;53.840;10.762;2023-05-07T09:54:45;2.53;;;2.33;;
8556;SDS011;4316;53.840;10.762;2023-05-07T09:57:14;3.23;;;2.30;;
8556;SDS011;4316;53.840;10.762;2023-05-07T09:59:44;4.20;;;2.30;;
8556;SDS011;4316;53.840;10.762;2023-05-07T10:02:14;2.43;;;2.30;;
8556;SDS011;4316;53.840;10.762;2023-05-07T10:04:49;5.37;;;2.63;;
8556;SDS011;4316;53.840;10.762;2023-05-07T10:07:19;2.50;;;2.30;;
8556;SDS011;4316;53.840;10.762;2023-05-07T10:09:47;4.20;;;2.27;;
8556;SDS011;4316;53.840;10.762;2023-05-07T10:12:25;2.43;;;2.30;;
8556;SDS011;4316;53.840;10.762;2023-05-07T10:14:52;2.40;;;2.20;;
8556;SDS011;4316;53.840;10.762;2023-05-07T10:17:20;3.67;;;2.30;;
8556;SDS011;4316;53.840;10.762;2023-05-07T10:19:48;3.70;;;2.37;;
8556;SDS011;4316;53.840;10.762;2023-05-07T10:22:16;3.03;;;2.20;;
8556;SDS011;4316;53.840;10.762;2023-05-07T10:24:44;1.80;;;1.70;;
8556;SDS011;4316;53.840;10.762;2023-05-07T10:27:15;5.40;;;2.23;;
8556;SDS011;4316;53.840;10.762;2023-05-07T10:33:05;2.00;;;1.80;;
8556;SDS011;4316;53.840;10.762;2023-05-07T10:35:40;2.50;;;1.57;;
8556;SDS011;4316;53.840;10.762;2023-05-07T10:38:08;3.23;;;2.03;;
8556;SDS011;4316;53.840;10.762;2023-05-07T10:40:36;3.50;;;1.73;;
8556;SDS011;4316;53.840;10.762;2023-05-07T10:43:04;2.03;;;1.80;;
8556;SDS011;4316;53.840;10.762;2023-05-07T10:45:36;1.77;;;1.67;;
8556;SDS011;4316;53.840;10.762;2023-05-07T10:48:11;2.00;;;1.87;;
8556;SDS011;4316;53.840;10.762;2023-05-07T10:50:39;2.00;;;1.80;;
8556;SDS011;4316;53.840;10.762;2023-05-07T10:53:20;2.37;;;2.00;;
8556;SDS011;4316;53.840;10.762;2023-05-07T10:56:23;5.73;;;1.50;;
8556;SDS011;4316;53.840;10.762;2023-05-07T10:59:22;2.57;;;1.47;;
8556;SDS011;4316;53.840;10.762;2023-05-07T11:02:02;2.73;;;1.50;;
8556;SDS011;4316;53.840;10.762;2023-05-07T11:04:41;1.57;;;1.43;;
8556;SDS011;4316;53.840;10.762;2023-05-07T11:07:21;1.50;;;1.20;;
8556;SDS011;4316;53.840;10.762;2023-05-07T11:15:02;2.40;;;1.50;;
8556;SDS011;4316;53.840;10.762;2023-05-07T11:17:51;5.90;;;1.50;;
8556;SDS011;4316;53.840;10.762;2023-05-07T11:20:19;2.70;;;1.37;;
8556;SDS011;4316;53.840;10.762;2023-05-07T11:22:52;1.60;;;1.50;;
8556;SDS011;4316;53.840;10.762;2023-05-07T11:25:25;1.77;;;1.60;;
8556;SDS011;4316;53.840;10.762;2023-05-07T11:28:03;4.30;;;1.60;;
8556;SDS011;4316;53.840;10.762;2023-05-07T11:30:36;5.90;;;1.73;;
8556;SDS011;4316;53.840;10.762;2023-05-07T11:33:03;2.73;;;1.50;;
8556;SDS011;4316;53.840;10.762;2023-05-07T11:35:30;1.67;;;1.57;;
8556;SDS011;4316;53.840;10.762;2023-05-07T11:37:59;1.77;;;1.40;;
8556;SDS011;4316;53.840;10.762;2023-05-07T11:40:26;2.20;;;1.43;;
8556;SDS011;4316;53.840;10.762;2023-05-07T11:42:53;1.47;;;1.30;;
8556;SDS011;4316;53.840;10.762;2023-05-07T11:45:22;2.33;;;1.50;;
8556;SDS011;4316;53.840;10.762;2023-05-07T11:47:54;1.50;;;1.40;;
8556;SDS011;4316;53.840;10.762;2023-05-07T11:50:20;3.97;;;1.50;;
8556;SDS011;4316;53.840;10.762;2023-05-07T11:52:50;1.50;;;1.40;;
8556;SDS011;4316;53.840;10.762;2023-05-07T11:55:17;2.57;;;1.37;;
8556;SDS011;4316;53.840;10.762;2023-05-07T11:57:44;6.33;;;1.53;;
8556;SDS011;4316;53.840;10.762;2023-05-07T12:00:10;5.30;;;1.80;;
8556;SDS011;4316;53.840;10.762;2023-05-07T12:02:39;1.60;;;1.50;;
8556;SDS011;4316;53.840;10.762;2023-05-07T12:05:04;1.43;;;1.33;;
8556;SDS011;4316;53.840;10.762;2023-05-07T12:07:30;2.23;;;1.13;;
8556;SDS011;4316;53.840;10.762;2023-05-07T12:09:58;2.90;;;1.20;;
8556;SDS011;4316;53.840;10.762;2023-05-07T12:12:24;1.73;;;1.47;;
8556;SDS011;4316;53.840;10.762;2023-05-07T12:14:51;9.00;;;1.70;;
8556;SDS011;4316;53.840;10.762;2023-05-07T12:17:17;4.57;;;1.60;;
8556;SDS011;4316;53.840;10.762;2023-05-07T12:19:43;2.37;;;1.60;;
8556;SDS011;4316;53.840;10.762;2023-05-07T12:22:10;1.90;;;1.80;;
8556;SDS011;4316;53.840;10.762;2023-05-07T12:24:45;1.77;;;1.43;;
8556;SDS011;4316;53.840;10.762;2023-05-07T12:27:15;1.23;;;1.13;;
8556;SDS011;4316;53.840;10.762;2023-05-07T12:29:49;4.20;;;1.30;;
8556;SDS011;4316;53.840;10.762;2023-05-07T12:32:16;5.27;;;1.13;;
8556;SDS011;4316;53.840;10.762;2023-05-07T12:34:43;2.17;;;1.50;;
8556;SDS011;4316;53.840;10.762;2023-05-07T12:37:09;1.53;;;1.43;;
8556;SDS011;4316;53.840;10.762;2023-05-07T12:39:35;2.15;;;1.50;;
8556;SDS011;4316;53.840;10.762;2023-05-07T12:42:01;1.97;;;1.40;;
8556;SDS011;4316;53.840;10.762;2023-05-07T12:44:35;1.80;;;1.30;;
8556;SDS011;4316;53.840;10.762;2023-05-07T12:47:01;1.70;;;1.60;;
8556;SDS011;4316;53.840;10.762;2023-05-07T12:49:27;1.73;;;1.50;;
8556;SDS011;4316;53.840;10.762;2023-05-07T12:51:53;1.67;;;1.40;;
8556;SDS011;4316;53.840;10.762;2023-05-07T12:54:29;2.70;;;1.60;;
8556;SDS011;4316;53.840;10.762;2023-05-07T12:57:01;2.07;;;1.87;;
8556;SDS011;4316;53.840;10.762;2023-05-07T12:59:41;4.60;;;1.50;;
8556;SDS011;4316;53.840;10.762;2023-05-07T13:02:07;5.13;;;1.50;;
8556;SDS011;4316;53.840;10.762;2023-05-07T13:04:35;5.37;;;1.67;;
8556;SDS011;4316;53.840;10.762;2023-05-07T13:07:01;1.80;;;1.60;;
8556;SDS011;4316;53.840;10.762;2023-05-07T13:09:27;7.83;;;1.87;;
8556;SDS011;4316;53.840;10.762;2023-05-07T13:11:54;2.67;;;1.80;;
8556;SDS011;4316;53.840;10.762;2023-05-07T13:14:20;1.57;;;1.47;;
8556;SDS011;4316;53.840;10.762;2023-05-07T13:16:46;1.67;;;1.47;;
8556;SDS011;4316;53.840;10.762;2023-05-07T13:19:12;3.67;;;1.67;;
8556;SDS011;4316;53.840;10.762;2023-05-07T13:21:37;2.23;;;1.70;;
8556;SDS011;4316;53.840;10.762;2023-05-07T13:24:03;2.03;;;1.57;;
8556;SDS011;4316;53.840;10.762;2023-05-07T13:26:29;3.53;;;1.50;;
8556;SDS011;4316;53.840;10.762;2023-05-07T13:28:55;3.60;;;1.83;;
8556;SDS011;4316;53.840;10.762;2023-05-07T13:31:21;2.33;;;1.90;;
8556;SDS011;4316;53.840;10.762;2023-05-07T13:33:47;1.92;;;1.70;;
8556;SDS011;4316;53.840;10.762;2023-05-07T13:36:13;1.50;;;1.40;;
8556;SDS011;4316;53.840;10.762;2023-05-07T13:38:39;1.23;;;1.23;;
8556;SDS011;4316;53.840;10.762;2023-05-07T13:41:05;5.88;;;1.65;;
8556;SDS011;4316;53.840;10.762;2023-05-07T13:43:30;2.35;;;1.60;;
8556;SDS011;4316;53.840;10.762;2023-05-07T13:45:58;5.55;;;1.60;;
8556;SDS011;4316;53.840;10.762;2023-05-07T13:48:24;2.45;;;1.58;;
8556;SDS011;4316;53.840;10.762;2023-05-07T13:50:50;3.47;;;1.60;;
8556;SDS011;4316;53.840;10.762;2023-05-07T13:53:16;4.03;;;1.38;;
8556;SDS011;4316;53.840;10.762;2023-05-07T13:55:43;2.15;;;1.70;;
8556;SDS011;4316;53.840;10.762;2023-05-07T13:58:10;5.13;;;2.30;;
8556;SDS011;4316;53.840;10.762;2023-05-07T14:00:36;4.30;;;1.70;;
8556;SDS011;4316;53.840;10.762;2023-05-07T14:03:01;3.97;;;1.73;;
8556;SDS011;4316;53.840;10.762;2023-05-07T14:05:29;1.70;;;1.52;;
8556;SDS011;4316;53.840;10.762;2023-05-07T14:07:55;4.03;;;1.58;;
8556;SDS011;4316;53.840;10.762;2023-05-07T14:10:22;2.60;;;1.63;;
8556;SDS011;4316;53.840;10.762;2023-05-07T14:12:48;4.40;;;1.90;;
8556;SDS011;4316;53.840;10.762;2023-05-07T14:15:14;2.38;;;1.48;;
8556;SDS011;4316;53.840;10.762;2023-05-07T14:17:41;1.63;;;1.40;;
8556;SDS011;4316;53.840;10.762;2023-05-07T14:20:07;1.80;;;1.60;;
8556;SDS011;4316;53.840;10.762;2023-05-07T14:22:33;1.63;;;1.55;;
8556;SDS011;4316;53.840;10.762;2023-05-07T14:24:59;9.82;;;1.70;;
8556;SDS011;4316;53.840;10.762;2023-05-07T14:27:25;3.45;;;1.65;;
8556;SDS011;4316;53.840;10.762;2023-05-07T14:29:51;3.63;;;1.30;;
8556;SDS011;4316;53.840;10.762;2023-05-07T14:32:17;1.60;;;1.50;;
8556;SDS011;4316;53.840;10.762;2023-05-07T14:34:43;1.67;;;1.47;;
8556;SDS011;4316;53.840;10.762;2023-05-07T14:37:09;2.80;;;2.00;;
8556;SDS011;4316;53.840;10.762;2023-05-07T14:39:35;4.90;;;1.60;;
8556;SDS011;4316;53.840;10.762;2023-05-07T14:42:01;2.78;;;1.58;;
8556;SDS011;4316;53.840;10.762;2023-05-07T14:44:27;2.53;;;1.90;;
8556;SDS011;4316;53.840;10.762;2023-05-07T14:46:52;2.27;;;1.43;;
8556;SDS011;4316;53.840;10.762;2023-05-07T14:49:18;1.20;;;1.10;;
8556;SDS011;4316;53.840;10.762;2023-05-07T14:51:44;3.85;;;1.67;;
8556;SDS011;4316;53.840;10.762;2023-05-07T14:54:10;4.50;;;2.05;;
8556;SDS011;4316;53.840;10.762;2023-05-07T14:56:36;4.68;;;1.70;;
8556;SDS011;4316;53.840;10.762;2023-05-07T14:59:02;1.95;;;1.60;;
8556;SDS011;4316;53.840;10.762;2023-05-07T15:01:28;2.33;;;1.70;;
8556;SDS011;4316;53.840;10.762;2023-05-07T15:03:54;4.45;;;1.85;;
8556;SDS011;4316;53.840;10.762;2023-05-07T15:06:20;4.13;;;1.45;;
8556;SDS011;4316;53.840;10.762;2023-05-07T15:08:46;4.25;;;1.65;;